Rumsey, California
Current Conditions -  °F | °C
As of 9:55 AM on Saturday 20 Dec 2014 (Local Time) from KEDU Reporting Station
Overcast Overcast  
Wind Chill: 54°   Ceiling: 600
Heat Index: 54°   Visibility: 6mi
Dew Point: 50°   Wind: 8mph
Humidity: 88%   Direction: 150°SSE
Pressure: 30.23"   Gusts: NA
Location:  38.89°N, 122.24°W
Report Text: KEDU 201755Z AUTO 15007KT 6SM OVC006 12/10 A3023 RMK AO1
Loading
Personal Weather Stations






























Interactive Weather Map New forecast layout! Learn more

10-Day Weather Forecast

Advertisements
Track Severe Weather on mobile